Time;durP1;ratioP1;P1;durP2;ratioP2;P2;SDS_P1;SDS_P2;PMS_P1;PMS_P2;Temp;Humidity;BMP_temperature;BMP_pressure;BME280_temperature;BME280_humidity;BME280_pressure;Samples;Min_cycle;Max_cycle;Signal;HPM_P1;HPM_P2
2023/03/17 00:01:06;;;;;;;4.05;2.40;;;;;;;12.28;100.00;100599.81;2086188;28;20056;-73
2023/03/17 00:02:28;;;;;;;9.32;2.22;;;;;;;12.29;100.00;100601.56;2086100;28;20040;-73
2023/03/17 00:03:51;;;;;;;6.80;3.15;;;;;;;12.29;100.00;100599.81;2089659;28;20450;-73
2023/03/17 00:05:19;;;;;;;9.70;3.75;;;;;;;12.31;100.00;100598.06;2088131;28;20138;-73
2023/03/17 00:06:41;;;;;;;8.18;2.42;;;;;;;12.30;100.00;100601.59;2094637;28;20063;-73
2023/03/17 00:08:13;;;;;;;9.50;2.53;;;;;;;12.29;100.00;100593.63;2094178;28;20519;-73
2023/03/17 00:09:35;;;;;;;7.00;2.47;;;;;;;12.30;100.00;100598.06;2092750;28;20444;-73
2023/03/17 00:10:58;;;;;;;7.78;3.00;;;;;;;12.27;100.00;100595.41;2096548;28;20056;-73
2023/03/17 00:12:20;;;;;;;6.13;1.40;;;;;;;12.22;100.00;100594.47;2085073;28;20053;-73
2023/03/17 00:13:43;;;;;;;4.82;1.88;;;;;;;12.20;100.00;100588.31;2085662;28;20393;-72
2023/03/17 00:15:05;;;;;;;8.77;3.60;;;;;;;12.23;100.00;100601.53;2094438;28;20078;-73
2023/03/17 00:16:31;;;;;;;9.80;3.78;;;;;;;12.26;100.00;100596.28;2088636;28;20048;-72
2023/03/17 00:17:55;;;;;;;9.02;4.80;;;;;;;12.28;100.00;100595.41;2095969;28;20558;-72
2023/03/17 00:19:28;;;;;;;9.93;4.03;;;;;;;12.27;100.00;100583.03;2080575;28;20048;-72
2023/03/17 00:20:51;;;;;;;6.72;3.47;;;;;;;12.27;100.00;100593.63;2086665;28;20119;-73
2023/03/17 00:22:16;;;;;;;7.20;4.03;;;;;;;12.31;100.00;100589.25;2095064;28;20442;-72
2023/03/17 00:23:41;;;;;;;10.43;4.75;;;;;;;12.31;100.00;100589.25;2088653;28;20063;-73
2023/03/17 00:25:18;;;;;;;9.88;3.17;;;;;;;12.31;100.00;100583.97;2088655;28;20038;-72
2023/03/17 00:26:40;;;;;;;10.27;4.70;;;;;;;12.31;100.00;100583.97;2092861;28;20578;-72
2023/03/17 00:28:03;;;;;;;12.32;4.25;;;;;;;12.29;100.00;100578.66;2103011;28;20040;-72
2023/03/17 00:29:25;;;;;;;13.00;3.17;;;;;;;12.29;100.00;100583.94;2094285;28;20056;-73
2023/03/17 00:30:48;;;;;;;;;;;;;;;12.22;100.00;100575.94;2083181;28;20068;-72
2023/03/17 00:32:16;;;;;;;7.22;2.90;;;;;;;12.22;100.00;100573.31;2082118;28;19920;-73
2023/03/17 00:33:38;;;;;;;6.28;2.28;;;;;;;12.20;100.00;100572.44;2090773;28;20149;-72
2023/03/17 00:34:59;;;;;;;7.63;2.42;;;;;;;12.17;100.00;100575.03;2085282;28;20052;-72
2023/03/17 00:36:25;;;;;;;6.10;2.30;;;;;;;12.11;100.00;100567.97;2090156;28;20500;-72
2023/03/17 00:37:47;;;;;;;4.85;1.67;;;;;;;12.07;100.00;100562.66;2096692;28;20094;-73
2023/03/17 00:39:14;;;;;;;7.50;2.08;;;;;;;12.05;100.00;100564.38;2093606;28;20041;-72
2023/03/17 00:40:36;;;;;;;4.68;1.70;;;;;;;12.03;100.00;100558.19;2093420;28;20404;-73
2023/03/17 00:41:58;;;;;;;4.13;1.90;;;;;;;12.02;100.00;100561.72;2090621;28;20048;-73
2023/03/17 00:43:20;;;;;;;4.10;1.83;;;;;;;12.00;100.00;100556.44;2088274;28;20409;-72
2023/03/17 00:44:42;;;;;;;6.85;2.10;;;;;;;11.98;100.00;100561.72;2088797;28;20629;-72
2023/03/17 00:46:12;;;;;;;9.15;2.45;;;;;;;11.98;100.00;100559.06;2088420;28;20080;-72
2023/03/17 00:47:34;;;;;;;4.00;1.80;;;;;;;11.97;100.00;100557.28;2085882;28;20033;-72
2023/03/17 00:48:57;;;;;;;5.97;2.20;;;;;;;11.98;100.00;100560.81;2093334;28;20057;-72
2023/03/17 00:50:22;;;;;;;4.38;2.13;;;;;;;12.00;100.00;100561.72;2095874;28;20390;-72
2023/03/17 00:51:44;;;;;;;8.32;2.63;;;;;;;12.03;100.00;100556.44;2093768;28;20431;-72
2023/03/17 00:53:11;;;;;;;8.07;3.42;;;;;;;12.05;100.00;100553.81;2094074;28;20047;-73
2023/03/17 00:54:35;;;;;;;15.77;8.02;;;;;;;12.07;100.00;100557.34;2088472;28;20065;-72
2023/03/17 00:55:57;;;;;;;12.70;6.05;;;;;;;12.07;100.00;100557.34;2093028;28;20040;-73
2023/03/17 00:57:19;;;;;;;13.02;5.00;;;;;;;12.05;100.00;100551.16;2092750;28;20428;-72
2023/03/17 00:58:42;;;;;;;9.65;3.55;;;;;;;12.01;100.00;100563.50;2085524;28;20045;-72
2023/03/17 01:00:06;;;;;;;8.27;2.95;;;;;;;11.99;100.00;100559.94;2094047;28;20056;-72
2023/03/17 01:01:28;;;;;;;7.63;2.92;;;;;;;11.96;100.00;100565.22;2080116;28;20045;-72
2023/03/17 01:02:52;;;;;;;6.72;2.92;;;;;;;11.96;100.00;100568.75;2077187;28;20057;-72
2023/03/17 01:04:14;;;;;;;4.72;1.80;;;;;;;12.00;100.00;100571.41;2075273;28;20053;-72
2023/03/17 01:05:37;;;;;;;9.02;2.67;;;;;;;12.06;100.00;100566.16;2082863;28;20519;-72
2023/03/17 01:06:59;;;;;;;7.88;2.55;;;;;;;12.11;100.00;100567.06;2083254;28;20041;-73
2023/03/17 01:08:22;;;;;;;9.90;3.42;;;;;;;12.16;100.00;100567.97;2085353;28;20067;-73
2023/03/17 01:09:45;;;;;;;8.18;2.17;;;;;;;12.17;100.00;100564.47;2088105;28;20606;-76
2023/03/17 01:11:14;;;;;;;14.45;3.63;;;;;;;12.14;100.00;100564.47;2091257;28;20049;-76
2023/03/17 01:12:36;;;;;;;7.75;2.55;;;;;;;12.16;100.00;100567.97;2087134;28;20069;-77
2023/03/17 01:13:59;;;;;;;11.82;4.25;;;;;;;12.17;100.00;100581.22;2084478;28;20045;-77
2023/03/17 01:15:22;;;;;;;9.35;3.70;;;;;;;12.17;100.00;100580.34;2083241;28;20063;-78
2023/03/17 01:16:44;;;;;;;10.13;3.28;;;;;;;12.18;100.00;100583.00;2091248;28;20105;-77
2023/03/17 01:18:06;;;;;;;11.85;2.40;;;;;;;12.19;100.00;100579.47;2077688;28;20052;-80
2023/03/17 01:19:27;;;;;;;8.95;2.00;;;;;;;12.16;100.00;100579.44;2089838;28;20059;-82
2023/03/17 01:20:52;;;;;;;7.93;1.80;;;;;;;12.11;100.00;100581.19;2092907;28;20132;-82
2023/03/17 01:22:13;;;;;;;7.10;1.73;;;;;;;12.10;100.00;100584.72;2097116;28;20071;-81
2023/03/17 01:23:36;;;;;;;9.77;1.95;;;;;;;12.09;100.00;100582.03;2090470;28;20063;-81
2023/03/17 01:24:59;;;;;;;10.80;3.30;;;;;;;12.10;100.00;100586.47;2077546;28;20053;-79
2023/03/17 01:26:21;;;;;;;9.88;3.50;;;;;;;12.12;100.00;100595.31;2091765;28;20075;-78
2023/03/17 01:27:45;;;;;;;10.05;2.72;;;;;;;12.16;100.00;100597.09;2090687;28;20045;-77
2023/03/17 01:29:07;;;;;;;9.65;3.35;;;;;;;12.16;100.00;100597.97;2096504;28;20037;-77
2023/03/17 01:30:31;;;;;;;;;;;;;;;12.13;100.00;100602.38;2092870;28;20114;-79
2023/03/17 01:31:53;;;;;;;8.10;2.95;;;;;;;12.12;100.00;100604.13;2085836;28;19995;-77
2023/03/17 01:33:16;;;;;;;10.93;3.20;;;;;;;12.14;100.00;100605.00;2097626;28;20048;-77
2023/03/17 01:34:37;;;;;;;10.07;2.67;;;;;;;12.16;100.00;100612.97;2096422;28;20682;-78
2023/03/17 01:36:00;;;;;;;10.52;3.47;;;;;;;12.16;100.00;100603.25;2095243;28;20053;-76
2023/03/17 01:37:21;;;;;;;7.05;2.53;;;;;;;12.13;100.00;100605.03;2096353;28;20075;-77
2023/03/17 01:38:46;;;;;;;6.30;2.20;;;;;;;12.10;100.00;100605.00;2102402;28;20036;-77
2023/03/17 01:40:16;;;;;;;8.80;1.63;;;;;;;12.04;100.00;100597.91;2083522;28;20046;-76
2023/03/17 01:41:38;;;;;;;4.28;1.70;;;;;;;11.97;100.00;100602.25;2080802;28;20054;-76
2023/03/17 01:43:17;;;;;;;10.23;1.73;;;;;;;11.94;100.00;100611.94;2077454;28;20132;-77
2023/03/17 01:44:58;;;;;;;6.68;1.88;;;;;;;11.88;100.00;100598.69;2093518;28;20086;-76
2023/03/17 01:46:28;;;;;;;7.90;1.70;;;;;;;11.81;100.00;100600.38;2082262;28;20383;-78
2023/03/17 01:47:49;;;;;;;6.25;1.60;;;;;;;11.72;100.00;100602.91;2100298;28;20177;-76
2023/03/17 01:49:20;;;;;;;6.32;1.73;;;;;;;11.70;100.00;100599.38;2086693;28;20119;-77
2023/03/17 01:50:43;;;;;;;8.98;2.50;;;;;;;11.65;100.00;100598.44;2097680;28;20052;-77
2023/03/17 01:52:09;;;;;;;4.60;1.75;;;;;;;11.63;100.00;100605.47;2074009;28;20050;-76
2023/03/17 01:53:31;;;;;;;6.07;1.52;;;;;;;11.65;100.00;100610.78;2089089;28;20535;-76
2023/03/17 01:54:57;;;;;;;5.00;1.20;;;;;;;11.69;100.00;100610.81;2087893;28;20412;-77
2023/03/17 01:56:21;;;;;;;5.60;1.42;;;;;;;11.75;100.00;100608.25;2089739;28;20053;-78
2023/03/17 01:57:49;;;;;;;6.43;1.48;;;;;;;11.79;100.00;100610.06;2083230;28;20417;-78
2023/03/17 01:59:19;;;;;;;6.82;1.70;;;;;;;11.81;100.00;100618.91;2087910;28;20040;-79
2023/03/17 02:00:41;;;;;;;5.05;1.15;;;;;;;11.82;100.00;100614.47;2081687;28;20115;-80
2023/03/17 02:02:09;;;;;;;5.75;2.03;;;;;;;11.81;100.00;100618.00;2094344;28;20048;-81
2023/03/17 02:03:32;;;;;;;4.25;1.70;;;;;;;11.83;100.00;100619.78;2097578;28;20048;-83
2023/03/17 02:04:55;;;;;;;7.82;2.10;;;;;;;11.88;100.00;100615.41;2094732;28;20053;-82
2023/03/17 02:06:17;;;;;;;6.25;1.50;;;;;;;11.89;100.00;100626.88;2095833;28;20073;-81
2023/03/17 02:07:41;;;;;;;5.03;1.70;;;;;;;11.86;100.00;100624.22;2099531;28;20106;-81
2023/03/17 02:09:03;;;;;;;4.55;1.70;;;;;;;11.83;100.00;100633.00;2098078;28;20050;-81
2023/03/17 02:10:27;;;;;;;3.95;1.35;;;;;;;11.79;100.00;100625.94;2089464;28;20700;-81
2023/03/17 02:11:50;;;;;;;7.05;1.60;;;;;;;11.79;100.00;100625.94;2096150;28;20033;-81
2023/03/17 02:13:13;;;;;;;5.68;1.92;;;;;;;11.82;100.00;100628.59;2087979;28;20041;-80
2023/03/17 02:14:36;;;;;;;6.40;1.92;;;;;;;11.86;100.00;100629.50;2096369;28;20063;-81
2023/03/17 02:16:00;;;;;;;5.18;1.52;;;;;;;11.88;100.00;100631.28;2090597;28;20132;-80
2023/03/17 02:17:23;;;;;;;3.17;1.50;;;;;;;11.89;100.00;100633.06;2088541;28;20080;-80
2023/03/17 02:18:45;;;;;;;5.45;1.50;;;;;;;11.92;100.00;100632.19;2087425;28;20057;-79
2023/03/17 02:20:47;;;;;;;6.05;1.30;;;;;;;11.91;100.00;100631.31;2088169;28;20577;-78
2023/03/17 02:22:12;;;;;;;4.90;1.50;;;;;;;11.95;100.00;100633.09;2099248;28;20048;-79
2023/03/17 02:23:34;;;;;;;3.10;1.10;;;;;;;11.98;100.00;100633.13;2090947;28;20440;-79
2023/03/17 02:24:59;;;;;;;5.57;1.35;;;;;;;12.02;100.00;100633.13;2100940;28;20048;-78
2023/03/17 02:26:22;;;;;;;4.72;1.30;;;;;;;12.04;100.00;100627.00;2089568;28;20052;-79
2023/03/17 02:27:49;;;;;;;3.85;1.48;;;;;;;12.06;100.00;100627.91;2088030;28;20367;-78
2023/03/17 02:29:10;;;;;;;5.82;1.40;;;;;;;12.05;100.00;100628.78;2098919;28;20122;-78
2023/03/17 02:30:37;;;;;;;5.35;1.67;;;;;;;12.08;100.00;100625.28;2094973;28;20682;-77
2023/03/17 02:31:59;;;;;;;5.45;1.98;;;;;;;12.09;100.00;100624.38;2093089;28;20118;-78
2023/03/17 02:33:20;;;;;;;7.55;2.00;;;;;;;12.11;100.00;100623.53;2099852;28;20059;-78
2023/03/17 02:34:43;;;;;;;7.82;2.40;;;;;;;12.13;100.00;100623.53;2098143;28;20086;-78
2023/03/17 02:36:04;;;;;;;7.50;2.50;;;;;;;12.15;100.00;100630.59;2095611;28;20044;-79
2023/03/17 02:37:28;;;;;;;5.18;3.00;;;;;;;12.18;100.00;100629.75;2094854;28;20050;-78
2023/03/17 02:38:51;;;;;;;5.90;2.55;;;;;;;12.20;100.00;100631.53;2094467;28;20044;-79
2023/03/17 02:40:15;;;;;;;5.75;2.60;;;;;;;12.22;100.00;100624.47;2096608;28;20044;-79
2023/03/17 02:41:36;;;;;;;12.05;3.45;;;;;;;12.25;100.00;100640.38;2088937;28;20032;-79
2023/03/17 02:42:59;;;;;;;5.90;3.28;;;;;;;12.24;100.00;100630.66;2093218;28;20072;-79
2023/03/17 02:44:24;;;;;;;5.10;2.78;;;;;;;12.25;100.00;100632.44;2088445;28;20057;-79
2023/03/17 02:45:47;;;;;;;5.93;2.35;;;;;;;12.26;100.00;100625.41;2081302;28;20041;-77
2023/03/17 02:47:10;;;;;;;6.60;2.28;;;;;;;12.26;100.00;100634.22;2093881;28;20047;-77
2023/03/17 02:48:32;;;;;;;4.28;1.60;;;;;;;12.26;100.00;100630.69;2086487;28;20057;-79
2023/03/17 02:49:55;;;;;;;6.70;1.65;;;;;;;12.23;100.00;100639.47;2096702;28;20051;-78
2023/03/17 02:51:16;;;;;;;4.65;1.45;;;;;;;12.23;100.00;100630.66;2097455;28;20044;-78
2023/03/17 02:52:40;;;;;;;3.65;1.20;;;;;;;12.23;100.00;100628.00;2086513;28;20048;-77
2023/03/17 02:54:03;;;;;;;6.50;1.60;;;;;;;12.23;100.00;100625.38;2101096;28;20040;-78
2023/03/17 02:55:25;;;;;;;3.00;1.10;;;;;;;12.21;100.00;100622.69;2087532;28;20048;-78
2023/03/17 02:56:48;;;;;;;4.07;1.20;;;;;;;12.22;100.00;100623.59;2092462;28;20041;-77
2023/03/17 02:58:09;;;;;;;5.80;1.58;;;;;;;12.23;100.00;100625.38;2086691;28;20080;-77
2023/03/17 02:59:32;;;;;;;6.05;1.48;;;;;;;12.22;100.00;100626.22;2091227;28;20056;-77
2023/03/17 03:00:53;;;;;;;5.18;1.42;;;;;;;12.21;100.00;100624.47;2090226;28;20067;-77
2023/03/17 03:02:15;;;;;;;5.22;1.25;;;;;;;12.20;100.00;100622.72;2094537;28;20075;-77
2023/03/17 03:03:37;;;;;;;3.28;1.60;;;;;;;12.18;100.00;100622.69;2093015;28;20052;-77
2023/03/17 03:05:00;;;;;;;3.28;1.20;;;;;;;12.12;100.00;100619.13;2089315;28;20417;-77
2023/03/17 03:06:23;;;;;;;4.03;1.30;;;;;;;12.09;100.00;100622.63;2086799;28;20077;-76
2023/03/17 03:07:48;;;;;;;2.90;1.10;;;;;;;12.08;100.00;100622.63;2094660;28;20658;-78
2023/03/17 03:09:11;;;;;;;6.20;1.30;;;;;;;12.05;100.00;100619.94;2086240;28;20148;-77
2023/03/17 03:10:32;;;;;;;5.40;1.40;;;;;;;12.04;100.00;100621.72;2082946;28;20049;-77
2023/03/17 03:11:55;;;;;;;3.92;1.15;;;;;;;12.01;100.00;100621.72;2100440;28;20059;-77
2023/03/17 03:13:16;;;;;;;5.07;1.30;;;;;;;12.00;100.00;100622.56;2089306;28;20049;-77
2023/03/17 03:14:38;;;;;;;5.65;1.65;;;;;;;12.00;100.00;100622.56;2086537;28;20076;-77
2023/03/17 03:15:59;;;;;;;5.80;1.80;;;;;;;12.00;100.00;100624.34;2086297;28;20048;-77
2023/03/17 03:17:22;;;;;;;6.57;2.15;;;;;;;11.97;100.00;100618.13;2086583;28;20163;-77
2023/03/17 03:18:44;;;;;;;5.63;1.83;;;;;;;11.99;100.00;100618.16;2093793;28;20041;-77
2023/03/17 03:20:06;;;;;;;5.80;1.40;;;;;;;12.01;100.00;100627.00;2089046;28;20056;-77
2023/03/17 03:21:29;;;;;;;5.32;1.67;;;;;;;12.02;100.00;100623.44;2083977;28;20095;-77
2023/03/17 03:22:52;;;;;;;5.03;1.60;;;;;;;12.02;100.00;100619.91;2091712;28;20102;-77
2023/03/17 03:24:14;;;;;;;5.30;1.75;;;;;;;12.01;100.00;100624.34;2093019;28;20489;-76
2023/03/17 03:25:36;;;;;;;6.22;2.00;;;;;;;12.02;100.00;100622.56;2097346;28;20044;-76
2023/03/17 03:26:58;;;;;;;4.07;2.10;;;;;;;12.02;100.00;100619.91;2092140;28;20036;-76
2023/03/17 03:28:20;;;;;;;6.47;2.22;;;;;;;12.03;100.00;100617.28;2097311;28;20052;-76
2023/03/17 03:29:43;;;;;;;9.82;3.35;;;;;;;12.03;100.00;100619.03;2097386;28;20048;-76
2023/03/17 03:31:06;;;;;;;7.85;2.88;;;;;;;12.01;100.00;100621.72;2083760;28;20049;-75
2023/03/17 03:32:27;;;;;;;8.13;2.28;;;;;;;12.01;100.00;100623.47;2078168;28;20164;-75
2023/03/17 03:33:49;;;;;;;9.02;1.83;;;;;;;12.01;100.00;100615.53;2093045;28;20790;-76
2023/03/17 03:35:11;;;;;;;6.78;3.60;;;;;;;12.00;100.00;100616.41;2084019;28;20049;-76
2023/03/17 03:36:33;;;;;;;9.40;2.55;;;;;;;11.96;100.00;100616.34;2082194;28;20124;-75
2023/03/17 03:37:56;;;;;;;5.85;2.47;;;;;;;11.95;100.00;100621.63;2091983;28;20040;-76
2023/03/17 03:39:18;;;;;;;11.18;4.22;;;;;;;11.92;100.00;100617.22;2084426;28;20056;-75
2023/03/17 03:40:41;;;;;;;9.27;2.75;;;;;;;11.91;100.00;100611.91;2089925;28;20033;-75
2023/03/17 03:42:04;;;;;;;5.32;1.88;;;;;;;11.89;100.00;100618.94;2094446;28;20487;-74
2023/03/17 03:43:27;;;;;;;7.28;2.75;;;;;;;11.85;100.00;100618.03;2094360;28;20040;-75
2023/03/17 03:44:48;;;;;;;11.60;7.82;;;;;;;11.81;100.00;100620.66;2088534;28;20060;-75
2023/03/17 03:46:10;;;;;;;7.35;5.55;;;;;;;11.77;100.00;100611.78;2095168;28;20400;-75
2023/03/17 03:47:32;;;;;;;9.50;5.97;;;;;;;11.76;100.00;100617.06;2091494;28;20468;-74
2023/03/17 03:48:55;;;;;;;9.00;5.88;;;;;;;11.74;100.00;100613.53;2081409;28;20825;-75
2023/03/17 03:50:16;;;;;;;11.50;7.95;;;;;;;11.71;100.00;100624.94;2089695;28;20046;-75
2023/03/17 03:51:38;;;;;;;17.80;14.82;;;;;;;11.68;100.00;100619.63;2082525;28;20052;-75
2023/03/17 03:53:02;;;;;;;20.08;16.80;;;;;;;11.68;100.00;100616.09;2082700;28;20578;-76
2023/03/17 03:54:23;;;;;;;21.90;19.48;;;;;;;11.66;100.00;100620.47;2093601;28;20464;-75
2023/03/17 03:55:46;;;;;;;15.23;12.63;;;;;;;11.62;100.00;100619.56;2091507;28;20049;-75
2023/03/17 03:57:07;;;;;;;10.27;6.65;;;;;;;11.57;100.00;100616.88;2081721;28;20040;-75
2023/03/17 03:58:29;;;;;;;5.97;3.65;;;;;;;11.52;100.00;100620.34;2085137;28;20059;-75
2023/03/17 03:59:51;;;;;;;5.93;2.45;;;;;;;11.46;100.00;100612.38;2089598;28;20056;-75
2023/03/17 04:01:13;;;;;;;4.82;2.30;;;;;;;11.43;100.00;100615.84;2077895;28;20152;-75
2023/03/17 04:02:34;;;;;;;2.95;1.95;;;;;;;11.40;100.00;100615.84;2091768;28;20049;-74
2023/03/17 04:03:57;;;;;;;3.67;2.00;;;;;;;11.39;100.00;100618.47;2094272;28;20500;-76
2023/03/17 04:05:18;;;;;;;3.67;1.52;;;;;;;11.37;100.00;100618.44;2089273;28;20622;-75
2023/03/17 04:06:41;;;;;;;7.00;2.80;;;;;;;11.35;100.00;100619.31;2086169;28;20118;-74
2023/03/17 04:08:05;;;;;;;12.52;5.20;;;;;;;11.34;100.00;100621.06;2083544;28;20053;-74
2023/03/17 04:09:26;;;;;;;20.58;15.63;;;;;;;11.31;100.00;100620.13;2090087;28;20468;-75
2023/03/17 04:10:49;;;;;;;19.77;11.68;;;;;;;11.32;100.00;100627.22;2084970;28;20103;-76
2023/03/17 04:12:12;;;;;;;12.43;7.45;;;;;;;11.31;100.00;100623.66;2077523;28;20060;-74
2023/03/17 04:13:34;;;;;;;9.60;4.10;;;;;;;11.29;100.00;100621.91;2082626;28;20374;-74
2023/03/17 04:14:57;;;;;;;11.68;5.47;;;;;;;11.28;100.00;100625.41;2098735;28;20118;-75
2023/03/17 04:16:18;;;;;;;8.65;4.70;;;;;;;11.25;100.00;100620.09;2080367;28;20058;-74
2023/03/17 04:17:41;;;;;;;9.75;4.45;;;;;;;11.24;100.00;100626.22;2091413;28;20059;-75
2023/03/17 04:19:02;;;;;;;6.50;3.45;;;;;;;11.22;100.00;100626.25;2088137;28;20079;-75
2023/03/17 04:20:24;;;;;;;6.57;2.42;;;;;;;11.19;100.00;100627.09;2091769;28;20076;-74
2023/03/17 04:21:46;;;;;;;4.07;1.95;;;;;;;11.17;100.00;100627.91;2094425;28;20683;-74
2023/03/17 04:23:09;;;;;;;7.28;3.38;;;;;;;11.16;100.00;100626.13;2086231;28;20061;-74
2023/03/17 04:24:31;;;;;;;10.05;3.88;;;;;;;11.13;100.00;100629.66;2098488;28;20052;-74
2023/03/17 04:25:53;;;;;;;10.27;2.80;;;;;;;11.11;100.00;100627.84;2088573;28;20044;-74
2023/03/17 04:27:16;;;;;;;7.80;2.95;;;;;;;11.10;100.00;100629.59;2085850;28;20049;-75
2023/03/17 04:28:38;;;;;;;9.60;3.00;;;;;;;11.09;100.00;100626.97;2094330;28;20094;-74
2023/03/17 04:30:01;;;;;;;5.78;2.83;;;;;;;11.07;100.00;100629.59;2093759;28;20045;-74
2023/03/17 04:31:22;;;;;;;6.75;2.65;;;;;;;11.01;100.00;100626.88;2094221;28;20419;-74
2023/03/17 04:32:45;;;;;;;6.65;2.70;;;;;;;10.97;100.00;100627.69;2094048;28;20041;-74
2023/03/17 04:34:10;;;;;;;6.15;2.72;;;;;;;10.95;100.00;100626.81;2094432;28;20523;-74
2023/03/17 04:35:32;;;;;;;8.70;3.35;;;;;;;10.94;100.00;100629.44;2096501;28;20060;-74
2023/03/17 04:36:55;;;;;;;6.97;2.75;;;;;;;10.94;100.00;100629.44;2094132;28;20048;-74
2023/03/17 04:38:17;;;;;;;5.38;1.98;;;;;;;10.95;100.00;100633.84;2088474;28;20049;-74
2023/03/17 04:39:40;;;;;;;6.07;1.85;;;;;;;10.94;100.00;100630.31;2090622;28;20057;-74
2023/03/17 04:41:02;;;;;;;6.60;2.40;;;;;;;10.94;100.00;100629.44;2091766;28;20514;-74
2023/03/17 04:42:24;;;;;;;7.85;2.05;;;;;;;10.93;100.00;100636.47;2099685;28;20083;-74
2023/03/17 04:43:46;;;;;;;7.07;2.05;;;;;;;10.94;100.00;100638.25;2100310;28;20044;-74
2023/03/17 04:45:10;;;;;;;6.20;2.45;;;;;;;10.96;100.00;100633.84;2094206;28;20085;-74
2023/03/17 04:46:33;;;;;;;6.25;2.45;;;;;;;10.98;100.00;100632.13;2092031;28;20135;-74
2023/03/17 04:47:56;;;;;;;5.20;2.35;;;;;;;10.99;100.00;100636.53;2091434;28;20052;-74
2023/03/17 04:49:18;;;;;;;7.43;3.80;;;;;;;11.02;100.00;100640.97;2097749;28;20032;-74
2023/03/17 04:50:41;;;;;;;11.40;4.03;;;;;;;11.02;100.00;100639.22;2102262;28;20063;-74
2023/03/17 04:52:03;;;;;;;7.85;2.30;;;;;;;11.00;100.00;100634.78;2102417;28;20044;-74
2023/03/17 04:53:26;;;;;;;5.90;2.50;;;;;;;10.98;100.00;100633.88;2094192;28;20072;-74
2023/03/17 04:54:48;;;;;;;6.43;2.38;;;;;;;10.97;100.00;100630.34;2101955;28;20622;-74
2023/03/17 04:56:09;;;;;;;6.50;2.60;;;;;;;10.98;100.00;100625.94;2102192;28;20360;-74
2023/03/17 04:57:33;;;;;;;5.00;2.55;;;;;;;11.02;100.00;100636.59;2093924;28;20147;-74
2023/03/17 04:58:55;;;;;;;5.90;2.60;;;;;;;11.10;100.00;100634.88;2090444;28;20118;-74
2023/03/17 05:00:18;;;;;;;4.43;2.00;;;;;;;11.21;100.00;100639.44;2089494;28;20515;-74
2023/03/17 05:01:41;;;;;;;5.28;2.60;;;;;;;11.30;100.00;100640.38;2087977;28;20057;-74
2023/03/17 05:03:03;;;;;;;4.03;2.00;;;;;;;11.42;100.00;100647.59;2085402;28;20140;-74
2023/03/17 05:04:26;;;;;;;6.47;2.67;;;;;;;11.52;100.00;100652.06;2077304;28;20060;-74
2023/03/17 05:05:47;;;;;;;4.82;1.83;;;;;;;11.64;100.00;100646.91;2083195;28;20045;-74
2023/03/17 05:07:09;;;;;;;7.68;4.55;;;;;;;11.75;100.00;100655.00;2085176;28;20551;-73
2023/03/17 05:08:32;;;;;;;10.25;3.92;;;;;;;11.85;100.00;100652.44;2093560;28;20424;-74
2023/03/17 05:09:54;;;;;;;7.20;3.53;;;;;;;11.96;100.00;100658.69;2088359;28;20052;-74
2023/03/17 05:11:15;;;;;;;7.78;4.70;;;;;;;12.08;100.00;100660.53;2095051;28;20040;-74
2023/03/17 05:12:38;;;;;;;15.80;13.35;;;;;;;12.16;100.00;100658.84;2096383;28;20105;-74
2023/03/17 05:14:00;;;;;;;19.33;17.23;;;;;;;12.28;100.00;100665.97;2096595;28;20048;-74
2023/03/17 05:15:22;;;;;;;22.10;19.90;;;;;;;12.38;100.00;100671.34;2087756;28;20722;-74
2023/03/17 05:16:47;;;;;;;24.52;19.15;;;;;;;12.49;100.00;100674.06;2091146;28;20424;-74
2023/03/17 05:18:08;;;;;;;24.20;18.92;;;;;;;12.55;100.00;100676.75;2094172;28;20400;-74
2023/03/17 05:19:30;;;;;;;15.93;12.95;;;;;;;12.62;100.00;100686.50;2092454;28;20503;-74
2023/03/17 05:20:53;;;;;;;7.18;3.83;;;;;;;12.70;100.00;100683.91;2094060;28;20056;-74
2023/03/17 05:22:14;;;;;;;4.97;2.05;;;;;;;12.75;100.00;100687.44;2099006;28;20488;-74
2023/03/17 05:23:39;;;;;;;3.65;1.33;;;;;;;12.76;100.00;100692.78;2093590;28;20508;-74
2023/03/17 05:25:01;;;;;;;3.30;0.98;;;;;;;12.70;100.00;100690.09;2096493;28;20040;-74
2023/03/17 05:26:24;;;;;;;2.13;0.90;;;;;;;12.71;100.00;100702.47;2105026;28;20593;-74
2023/03/17 05:27:46;;;;;;;2.97;1.20;;;;;;;12.76;100.00;100706.00;2102097;28;20408;-74
2023/03/17 05:29:09;;;;;;;4.32;1.08;;;;;;;12.86;100.00;100706.06;2100145;28;20044;-73
2023/03/17 05:30:30;;;;;;;2.03;0.80;;;;;;;12.94;100.00;100710.50;2094001;28;20044;-73
2023/03/17 05:31:52;;;;;;;3.15;1.05;;;;;;;13.02;100.00;100713.19;2088178;28;20057;-74
2023/03/17 05:33:14;;;;;;;2.28;0.80;;;;;;;13.13;100.00;100716.81;2085478;28;20476;-74
2023/03/17 05:34:36;;;;;;;2.63;0.77;;;;;;;13.21;100.00;100711.56;2093777;28;20178;-74
2023/03/17 05:35:59;;;;;;;2.08;0.80;;;;;;;13.30;100.00;100714.25;2079877;28;20045;-74
2023/03/17 05:37:20;;;;;;;1.10;0.60;;;;;;;13.37;100.00;100716.94;2090961;28;20052;-74
2023/03/17 05:38:44;;;;;;;2.05;0.80;;;;;;;13.46;100.00;100721.34;2098580;28;20089;-74
2023/03/17 05:40:07;;;;;;;5.45;0.93;;;;;;;13.53;100.00;100724.03;2102170;28;20049;-73
2023/03/17 05:41:29;;;;;;;1.75;0.70;;;;;;;13.59;100.00;100722.31;2096467;28;20541;-73
2023/03/17 05:42:51;;;;;;;2.08;0.60;;;;;;;13.67;100.00;100729.38;2093700;28;20057;-74
2023/03/17 05:44:13;;;;;;;1.73;0.60;;;;;;;13.74;100.00;100728.50;2093607;28;20424;-73
2023/03/17 05:45:34;;;;;;;1.77;0.60;;;;;;;13.79;100.00;100736.47;2093567;28;20523;-74
2023/03/17 05:46:58;;;;;;;0.98;0.60;;;;;;;13.84;100.00;100734.75;2095200;28;20052;-74
2023/03/17 05:48:21;;;;;;;1.73;0.75;;;;;;;13.92;100.00;100736.50;2102197;28;20052;-73
2023/03/17 05:49:43;;;;;;;1.50;0.55;;;;;;;14.04;100.00;100737.44;2102060;28;20048;-74
2023/03/17 05:51:06;;;;;;;3.10;0.80;;;;;;;14.10;100.00;100729.47;2091454;28;20048;-74
2023/03/17 05:52:29;;;;;;;3.22;1.05;;;;;;;14.08;100.00;100733.88;2088921;28;20040;-73
2023/03/17 05:53:53;;;;;;;4.63;1.20;;;;;;;14.05;100.00;100732.09;2090650;28;20123;-73
2023/03/17 05:55:16;;;;;;;7.03;1.75;;;;;;;14.02;100.00;100737.41;2085391;28;20052;-73
2023/03/17 05:56:39;;;;;;;5.88;1.50;;;;;;;14.04;100.00;100733.00;2099555;28;20052;-73
2023/03/17 05:58:03;;;;;;;2.65;1.15;;;;;;;14.14;100.00;100732.09;2089128;28;20041;-73
2023/03/17 05:59:25;;;;;;;1.55;0.85;;;;;;;14.27;100.00;100733.88;2088477;28;20067;-73
2023/03/17 06:00:48;;;;;;;2.03;0.43;;;;;;;14.43;100.00;100725.94;2091006;28;20048;-73
2023/03/17 06:02:10;;;;;;;1.23;0.50;;;;;;;14.60;100.00;100725.03;2082541;28;20053;-72
2023/03/17 06:03:32;;;;;;;2.85;0.47;;;;;;;14.77;100.00;100728.53;2074525;28;20045;-73
2023/03/17 06:04:55;;;;;;;0.88;0.47;;;;;;;14.87;100.00;100728.53;2082684;28;20045;-73
2023/03/17 06:06:17;;;;;;;1.30;0.50;;;;;;;14.88;100.00;100725.88;2094025;28;20045;-73
2023/03/17 06:07:40;;;;;;;1.05;0.50;;;;;;;14.89;100.00;100721.44;2087705;28;20452;-72
2023/03/17 06:09:05;;;;;;;2.35;0.52;;;;;;;14.86;100.00;100721.44;2086876;28;20041;-73
2023/03/17 06:10:27;;;;;;;1.65;0.50;;;;;;;14.88;100.00;100725.00;2075072;28;20061;-73
2023/03/17 06:11:50;;;;;;;1.42;0.38;;;;;;;14.94;100.00;100725.84;2074288;28;20053;-72
2023/03/17 06:13:11;;;;;;;2.60;0.50;;;;;;;14.98;100.00;100726.72;2074494;28;20662;-72
2023/03/17 06:14:34;;;;;;;2.45;0.70;;;;;;;15.01;100.00;100722.28;2087061;28;20048;-72
2023/03/17 06:15:57;;;;;;;2.30;0.47;;;;;;;15.14;100.00;100731.09;2101788;28;20048;-73
2023/03/17 06:17:18;;;;;;;0.52;0.20;;;;;;;15.29;100.00;100722.19;2099958;28;20082;-72
2023/03/17 06:18:41;;;;;;;2.22;0.50;;;;;;;15.44;100.00;100727.41;2093487;28;20680;-72
2023/03/17 06:20:04;;;;;;;1.40;0.57;;;;;;;15.58;100.00;100725.63;2088906;28;20040;-72
2023/03/17 06:21:27;;;;;;;2.42;1.00;;;;;;;15.59;100.00;100724.72;2101115;28;20164;-72
2023/03/17 06:22:49;;;;;;;4.78;2.00;;;;;;;15.54;100.00;100721.22;2103502;28;20052;-73